Time;durP1;ratioP1;P1;durP2;ratioP2;P2;SDS_P1;SDS_P2;PMS_P1;PMS_P2;Temp;Humidity;BMP_temperature;BMP_pressure;BME280_temperature;BME280_humidity;BME280_pressure;Samples;Min_cycle;Max_cycle;Signal;HPM_P1;HPM_P2
2021/10/17 00:01:32;;;;;;;12.52;7.00;;;;;;;8.40;100.00;101990.97;10584721;28;20054;-61
2021/10/17 00:06:34;;;;;;;15.27;6.20;;;;;;;8.44;100.00;101984.81;10584805;28;20051;-61
2021/10/17 00:11:37;;;;;;;15.68;6.05;;;;;;;8.59;100.00;101985.25;10585102;28;20051;-61
2021/10/17 00:16:40;;;;;;;12.23;6.78;;;;;;;8.32;100.00;101988.63;10584552;28;20047;-61
2021/10/17 00:21:42;;;;;;;18.08;5.82;;;;;;;8.54;98.34;101983.66;10583740;28;20419;-60
2021/10/17 00:26:45;;;;;;;7.93;4.78;;;;;;;8.55;95.07;101979.28;10584294;28;20047;-61
2021/10/17 00:31:47;;;;;;;11.75;4.75;;;;;;;8.81;92.80;101981.09;10583374;28;20043;-61
2021/10/17 00:36:50;;;;;;;19.48;5.78;;;;;;;8.68;90.24;101983.22;10583944;28;20063;-61
2021/10/17 00:41:52;;;;;;;10.95;4.95;;;;;;;8.76;88.33;101977.78;10582978;28;20414;-61
2021/10/17 00:46:55;;;;;;;9.57;5.32;;;;;;;8.96;89.77;101969.31;10565425;28;20043;-61
2021/10/17 00:51:57;;;;;;;14.38;5.95;;;;;;;8.76;88.90;101962.09;10564662;28;20044;-60
2021/10/17 00:56:59;;;;;;;11.63;5.68;;;;;;;8.79;85.77;101959.38;10582575;28;20043;-61
2021/10/17 01:02:02;;;;;;;13.98;6.13;;;;;;;8.77;92.89;101958.56;10564495;28;20056;-61
2021/10/17 01:07:06;;;;;;;19.05;6.35;;;;;;;8.81;92.03;101959.34;10582590;28;20135;-61
2021/10/17 01:12:09;;;;;;;19.45;6.63;;;;;;;8.71;91.19;101964.84;10564255;28;20043;-61
2021/10/17 01:17:11;;;;;;;15.73;6.72;;;;;;;8.73;94.97;101967.41;10582293;28;20051;-60
2021/10/17 01:22:14;;;;;;;18.45;6.68;;;;;;;8.82;96.77;101974.09;10581931;28;20058;-61
2021/10/17 01:27:17;;;;;;;12.95;5.90;;;;;;;8.60;100.00;101974.75;10582499;28;20044;-61
2021/10/17 01:32:19;;;;;;;19.23;6.70;;;;;;;8.70;99.44;101970.13;10563591;28;20444;-61
2021/10/17 01:37:21;;;;;;;13.07;6.07;;;;;;;8.55;100.00;101966.22;10582040;28;20077;-61
2021/10/17 01:42:23;;;;;;;20.05;7.30;;;;;;;8.40;100.00;101951.00;10581432;28;20051;-61
2021/10/17 01:47:27;;;;;;;14.45;7.18;;;;;;;8.33;100.00;101948.56;10582329;28;20039;-60
2021/10/17 01:52:29;;;;;;;22.67;7.10;;;;;;;8.34;100.00;101946.81;10581316;28;20511;-61
2021/10/17 01:57:31;;;;;;;18.55;8.10;;;;;;;8.59;100.00;101948.69;10581413;28;20047;-61
2021/10/17 02:02:34;;;;;;;11.35;6.95;;;;;;;8.47;100.00;101935.16;10581378;28;20050;-61
2021/10/17 02:07:36;;;;;;;13.50;6.10;;;;;;;8.36;100.00;101945.00;10582257;28;20043;-61
2021/10/17 02:12:39;;;;;;;17.80;6.82;;;;;;;8.42;100.00;101939.59;10588890;28;20407;-61
2021/10/17 02:17:44;;;;;;;19.17;7.15;;;;;;;8.44;100.00;101942.19;10589129;28;20057;-61
2021/10/17 02:22:46;;;;;;;18.83;8.50;;;;;;;8.24;100.00;101943.63;10589109;28;20094;-61
2021/10/17 02:27:48;;;;;;;12.50;8.50;;;;;;;8.33;100.00;101940.72;10588439;28;20058;-61
2021/10/17 02:32:51;;;;;;;16.55;8.60;;;;;;;8.29;100.00;101933.91;10570052;28;20119;-61
2021/10/17 02:37:53;;;;;;;15.98;9.05;;;;;;;8.25;100.00;101941.84;10588902;28;20048;-61
2021/10/17 02:42:56;;;;;;;14.57;8.80;;;;;;;8.21;100.00;101941.09;10588181;28;20054;-61
2021/10/17 02:47:58;;;;;;;21.08;9.00;;;;;;;8.05;100.00;101945.03;10569756;28;20465;-61
2021/10/17 02:53:01;;;;;;;14.35;9.68;;;;;;;8.22;100.00;101931.50;10587663;28;20131;-61
2021/10/17 02:58:04;;;;;;;17.15;8.55;;;;;;;8.10;100.00;101917.06;10587273;28;20044;-60
2021/10/17 03:03:06;;;;;;;17.50;9.55;;;;;;;8.15;100.00;101929.09;10569320;28;20078;-61
2021/10/17 03:08:09;;;;;;;16.92;8.95;;;;;;;8.17;100.00;101923.84;10587126;28;20050;-61
2021/10/17 03:13:11;;;;;;;21.38;10.50;;;;;;;8.17;100.00;101924.69;10586911;28;20477;-61
2021/10/17 03:18:14;;;;;;;18.67;9.38;;;;;;;8.21;100.00;101920.22;10586715;28;20048;-61
2021/10/17 03:23:16;;;;;;;25.75;10.98;;;;;;;8.04;100.00;101904.22;10586597;28;20047;-60
2021/10/17 03:28:18;;;;;;;19.27;11.07;;;;;;;8.13;100.00;101912.59;10586427;28;20048;-61
2021/10/17 03:33:22;;;;;;;15.70;9.00;;;;;;;8.32;100.00;101918.16;10586025;28;20083;-61
2021/10/17 03:38:25;;;;;;;18.92;10.13;;;;;;;8.12;100.00;101929.19;10567759;28;20055;-61
2021/10/17 03:43:27;;;;;;;19.83;10.40;;;;;;;8.15;100.00;101930.81;10567500;28;20101;-61
2021/10/17 03:48:30;;;;;;;21.73;10.25;;;;;;;8.02;100.00;101937.28;10585292;28;20052;-61
2021/10/17 03:53:32;;;;;;;20.00;11.35;;;;;;;8.01;100.00;101939.06;10585273;28;20044;-61
2021/10/17 03:58:35;;;;;;;20.02;12.35;;;;;;;7.87;100.00;101931.63;10585114;28;20050;-61
2021/10/17 04:03:37;;;;;;;18.60;11.25;;;;;;;7.79;100.00;101933.59;10584822;28;20051;-61
2021/10/17 04:08:41;;;;;;;30.80;10.75;;;;;;;7.76;100.00;101928.47;10584611;28;20051;-61
2021/10/17 04:13:43;;;;;;;20.40;9.15;;;;;;;8.06;100.00;101920.69;10584672;28;20044;-61
2021/10/17 04:18:46;;;;;;;16.40;9.38;;;;;;;8.02;100.00;101932.06;10584238;28;20063;-61
2021/10/17 04:23:49;;;;;;;15.27;9.60;;;;;;;8.04;100.00;101927.69;10583928;28;20406;-61
2021/10/17 04:28:51;;;;;;;24.10;11.18;;;;;;;7.88;100.00;101919.44;10583784;28;20039;-61
2021/10/17 04:33:53;;;;;;;19.52;9.48;;;;;;;8.06;100.00;101923.28;10582657;28;20522;-61
2021/10/17 04:38:56;;;;;;;19.45;9.77;;;;;;;8.04;100.00;101925.94;10583653;28;20083;-60
2021/10/17 04:43:58;;;;;;;23.75;10.88;;;;;;;7.86;100.00;101923.84;10565229;28;20048;-61
2021/10/17 04:49:00;;;;;;;17.63;10.15;;;;;;;7.98;100.00;101928.72;10583141;28;20044;-61
2021/10/17 04:54:03;;;;;;;13.88;9.00;;;;;;;7.87;100.00;101922.94;10582749;28;20398;-60
2021/10/17 04:59:05;;;;;;;19.23;11.32;;;;;;;7.52;100.00;101923.00;10582801;28;20047;-60
2021/10/17 05:04:07;;;;;;;20.25;11.27;;;;;;;7.56;100.00;101922.03;10582837;28;20058;-61
2021/10/17 05:09:10;;;;;;;20.58;10.80;;;;;;;7.86;100.00;101916.03;10582323;28;20050;-60
2021/10/17 05:14:12;;;;;;;22.05;9.98;;;;;;;7.73;100.00;101923.31;10582657;28;20073;-61
2021/10/17 05:19:15;;;;;;;21.77;11.00;;;;;;;7.48;100.00;101924.00;10582022;28;20047;-61
2021/10/17 05:24:17;;;;;;;24.30;10.65;;;;;;;7.29;100.00;101920.16;10582234;28;20047;-61
2021/10/17 05:29:19;;;;;;;19.27;9.88;;;;;;;7.65;100.00;101913.13;10581837;28;20051;-61
2021/10/17 05:34:22;;;;;;;18.55;9.80;;;;;;;7.60;100.00;101909.78;10581515;28;20395;-60
2021/10/17 05:39:24;;;;;;;20.83;9.65;;;;;;;7.40;100.00;101913.78;10581550;28;20510;-61
2021/10/17 05:44:27;;;;;;;19.23;10.15;;;;;;;7.28;100.00;101918.44;10568192;28;20501;-62
2021/10/17 05:49:29;;;;;;;20.75;11.35;;;;;;;7.33;100.00;101921.78;10589923;28;20487;-61
2021/10/17 05:54:32;;;;;;;11.82;8.63;;;;;;;7.34;100.00;101926.09;10590170;28;20043;-61
2021/10/17 05:59:34;;;;;;;24.65;11.25;;;;;;;7.16;100.00;101928.28;10571519;28;20047;-61
2021/10/17 06:04:36;;;;;;;16.33;10.40;;;;;;;7.49;100.00;101930.91;10571719;28;20051;-62
2021/10/17 06:09:40;;;;;;;15.77;8.82;;;;;;;7.57;100.00;101943.75;10589350;28;20475;-61
2021/10/17 06:14:42;;;;;;;19.48;10.02;;;;;;;7.59;100.00;101936.75;10589543;28;20047;-61
2021/10/17 06:19:44;;;;;;;22.55;11.70;;;;;;;7.51;100.00;101949.13;10570955;28;20050;-61
2021/10/17 06:24:47;;;;;;;24.02;10.05;;;;;;;7.48;100.00;101957.00;10589886;28;20048;-62
2021/10/17 06:29:49;;;;;;;24.02;9.85;;;;;;;7.44;100.00;101959.69;10588419;28;20047;-62
2021/10/17 06:34:52;;;;;;;19.42;8.85;;;;;;;7.71;100.00;101974.66;10589223;28;20055;-61
2021/10/17 06:39:54;;;;;;;18.98;9.43;;;;;;;7.58;100.00;101968.91;10570012;28;20495;-61
2021/10/17 06:44:56;;;;;;;26.15;10.40;;;;;;;7.80;100.00;101972.66;10588138;28;20490;-61
2021/10/17 06:49:59;;;;;;;16.15;10.23;;;;;;;7.88;100.00;101968.97;10569847;28;20052;-61
2021/10/17 06:55:01;;;;;;;12.88;8.23;;;;;;;8.09;100.00;101967.53;10569201;28;20056;-61
2021/10/17 07:00:05;;;;;;;20.10;10.13;;;;;;;7.91;100.00;101969.75;10588221;28;20052;-61
2021/10/17 07:05:08;;;;;;;15.70;8.90;;;;;;;8.11;100.00;101973.56;10552694;28;20126;-61
2021/10/17 07:10:10;;;;;;;21.90;9.48;;;;;;;8.19;100.00;101971.59;10587679;28;20384;-62
2021/10/17 07:15:12;;;;;;;19.50;9.80;;;;;;;8.29;100.00;101973.03;10586750;28;20565;-61
2021/10/17 07:20:15;;;;;;;20.25;9.93;;;;;;;8.58;100.00;101973.13;10552004;28;20602;-62
2021/10/17 07:25:17;;;;;;;22.92;11.18;;;;;;;8.40;100.00;101956.22;10551610;28;20410;-62
2021/10/17 07:30:20;;;;;;;16.23;9.20;;;;;;;8.35;100.00;101932.84;10586344;28;20070;-62
2021/10/17 07:35:22;;;;;;;14.15;9.07;;;;;;;8.29;96.02;101933.91;10567837;28;20052;-60
2021/10/17 07:40:25;;;;;;;19.70;10.15;;;;;;;8.61;94.87;101946.91;10586003;28;20147;-60
2021/10/17 07:45:27;;;;;;;13.18;8.55;;;;;;;9.71;99.21;101988.63;10585684;28;20051;-61
2021/10/17 07:50:30;;;;;;;23.52;7.85;;;;;;;9.99;92.63;101996.34;10567444;28;20518;-61
2021/10/17 07:55:32;;;;;;;16.90;8.05;;;;;;;9.84;90.67;102014.28;10585246;28;20475;-61
2021/10/17 08:00:36;;;;;;;17.10;8.68;;;;;;;9.72;92.17;102011.25;10568141;28;20130;-60
2021/10/17 08:05:39;;;;;;;18.42;9.65;;;;;;;9.80;90.33;102010.09;10583990;28;20052;-60
2021/10/17 08:10:42;;;;;;;14.50;9.05;;;;;;;9.68;95.85;102010.50;10566326;28;20051;-60
2021/10/17 08:15:44;;;;;;;11.15;8.45;;;;;;;10.10;90.85;102011.66;10583435;28;20043;-61
2021/10/17 08:20:48;;;;;;;16.67;9.55;;;;;;;10.51;86.09;102004.94;10565130;28;20544;-61
2021/10/17 08:25:51;;;;;;;14.52;9.07;;;;;;;10.83;85.34;102002.00;10583818;28;20498;-61
2021/10/17 08:30:53;;;;;;;13.63;8.20;;;;;;;10.66;77.76;102010.47;10583596;28;20044;-61
2021/10/17 08:35:55;;;;;;;18.75;8.10;;;;;;;11.21;84.13;102010.91;10583956;28;20114;-61
2021/10/17 08:40:59;;;;;;;14.13;6.32;;;;;;;10.87;79.93;102000.94;10583199;28;20054;-61
2021/10/17 08:46:02;;;;;;;13.40;6.88;;;;;;;11.01;84.84;102003.91;10565300;28;20058;-61
2021/10/17 08:51:06;;;;;;;15.20;6.25;;;;;;;11.05;82.97;102009.88;10582929;28;20050;-61
2021/10/17 08:56:13;;;;;;;14.90;6.03;;;;;;;11.30;85.02;102002.69;10564702;28;20052;-61
2021/10/17 09:01:16;;;;;;;16.67;6.07;;;;;;;11.07;79.46;101987.06;10582907;28;20055;-61
2021/10/17 09:06:26;;;;;;;11.98;6.13;;;;;;;11.03;79.84;101982.84;10564630;28;20505;-61
2021/10/17 09:11:40;;;;;;;15.38;6.13;;;;;;;11.39;86.29;101987.50;10582025;28;20121;-61
2021/10/17 09:16:45;;;;;;;9.00;5.05;;;;;;;11.42;81.19;101987.38;10564182;28;20047;-61
2021/10/17 09:22:02;;;;;;;12.50;6.53;;;;;;;11.48;79.49;101981.84;10582186;28;20048;-61
2021/10/17 09:27:16;;;;;;;14.60;5.72;;;;;;;11.87;81.14;101983.72;10582163;28;20051;-60
2021/10/17 09:32:23;;;;;;;10.82;5.53;;;;;;;11.88;81.11;101988.88;10581873;28;20055;-60
2021/10/17 09:37:37;;;;;;;10.75;5.30;;;;;;;11.95;80.32;101983.38;10563462;28;20515;-60
2021/10/17 09:42:41;;;;;;;14.38;5.18;;;;;;;12.56;75.81;101979.75;10582055;28;20052;-60
2021/10/17 09:47:43;;;;;;;13.43;6.00;;;;;;;12.22;73.20;101987.41;10581446;28;20394;-60
2021/10/17 09:52:57;;;;;;;11.48;5.53;;;;;;;12.47;74.98;102004.66;10563460;28;20043;-60
2021/10/17 09:58:03;;;;;;;8.20;5.75;;;;;;;12.23;74.85;101993.50;10581574;28;20050;-60
2021/10/17 10:03:08;;;;;;;8.18;6.18;;;;;;;12.25;75.17;101992.53;10581178;28;20051;-60
2021/10/17 10:08:10;;;;;;;16.08;6.63;;;;;;;12.35;76.59;101995.56;10581037;28;20055;-60
2021/10/17 10:13:13;;;;;;;13.07;6.35;;;;;;;12.33;77.40;101992.16;10546372;28;20067;-60
2021/10/17 10:18:16;;;;;;;14.48;6.85;;;;;;;12.53;78.60;101991.25;10562972;28;20491;-61
2021/10/17 10:23:19;;;;;;;12.15;6.40;;;;;;;12.70;71.28;102005.38;10581003;28;20066;-60
2021/10/17 10:28:25;;;;;;;10.68;7.95;;;;;;;12.82;74.84;101999.53;10581352;28;20479;-60
2021/10/17 10:33:41;;;;;;;11.15;6.93;;;;;;;12.63;77.16;101996.94;10571112;28;20047;-60
2021/10/17 10:38:52;;;;;;;12.35;7.25;;;;;;;12.96;76.32;101996.22;10587844;28;20051;-61
2021/10/17 10:44:14;;;;;;;12.13;7.78;;;;;;;12.78;73.19;101993.56;10588371;28;20051;-60
2021/10/17 10:49:40;;;;;;;12.48;7.63;;;;;;;13.34;74.37;101983.00;10587976;28;20048;-60
2021/10/17 10:54:43;;;;;;;15.95;7.47;;;;;;;13.81;69.49;101981.50;10587862;28;20062;-61
2021/10/17 11:00:06;;;;;;;10.40;7.45;;;;;;;14.18;71.04;101974.31;10588007;28;20039;-61
2021/10/17 11:05:18;;;;;;;9.48;7.28;;;;;;;14.12;70.79;101976.34;10587344;28;20048;-61
2021/10/17 11:10:25;;;;;;;12.55;7.20;;;;;;;13.72;70.47;101982.84;10586888;28;20052;-61
2021/10/17 11:15:32;;;;;;;12.43;6.75;;;;;;;13.53;65.26;101970.66;10587005;28;20040;-61
2021/10/17 11:20:36;;;;;;;12.45;6.75;;;;;;;13.43;67.49;101977.31;10569038;28;20051;-61
2021/10/17 11:25:38;;;;;;;8.35;5.78;;;;;;;13.68;71.74;101968.97;10586660;28;20075;-61
2021/10/17 11:30:41;;;;;;;10.90;6.70;;;;;;;14.04;67.78;101957.47;10586295;28;20058;-61
2021/10/17 11:35:43;;;;;;;10.18;5.65;;;;;;;14.09;64.27;101959.84;10586028;28;20479;-60
2021/10/17 11:40:45;;;;;;;8.23;6.75;;;;;;;14.70;65.01;101960.91;10567696;28;20047;-61
2021/10/17 11:45:50;;;;;;;10.55;6.25;;;;;;;15.07;62.71;101961.44;10585801;28;20050;-61
2021/10/17 11:50:52;;;;;;;14.07;6.13;;;;;;;15.33;60.38;101961.72;10585180;28;20048;-61
2021/10/17 11:55:55;;;;;;;9.20;6.10;;;;;;;14.92;64.20;101960.53;10585324;28;20437;-61
2021/10/17 12:01:07;;;;;;;14.35;6.18;;;;;;;15.10;61.48;101942.81;10584861;28;20490;-61
2021/10/17 12:06:15;;;;;;;11.45;5.78;;;;;;;16.31;59.00;101939.06;10566799;28;20399;-61
2021/10/17 12:11:17;;;;;;;7.53;5.35;;;;;;;15.67;59.93;101934.16;10566476;28;20044;-61
2021/10/17 12:16:22;;;;;;;8.82;4.53;;;;;;;15.09;59.82;101929.72;10584289;28;20043;-61
2021/10/17 12:21:29;;;;;;;8.05;4.97;;;;;;;15.26;59.59;101923.44;10566471;28;20090;-61
2021/10/17 12:26:35;;;;;;;8.45;4.75;;;;;;;15.15;65.62;101919.66;10566243;28;20387;-61
2021/10/17 12:31:43;;;;;;;10.30;4.68;;;;;;;14.75;64.31;101910.56;10565582;28;20058;-61
2021/10/17 12:36:47;;;;;;;5.07;4.10;;;;;;;14.76;62.33;101921.03;10583441;28;20509;-61
2021/10/17 12:41:58;;;;;;;8.35;4.68;;;;;;;14.65;63.16;101926.91;10583558;28;20066;-61
2021/10/17 12:47:04;;;;;;;9.33;4.23;;;;;;;14.76;64.74;101925.44;10583539;28;20055;-61
2021/10/17 12:52:09;;;;;;;6.47;4.00;;;;;;;14.25;66.30;101921.19;10564681;28;20070;-61
2021/10/17 12:57:11;;;;;;;8.02;4.13;;;;;;;14.28;66.87;101918.38;10564921;28;20418;-61
2021/10/17 13:02:15;;;;;;;10.27;4.28;;;;;;;14.11;59.65;101921.94;10582982;28;20051;-61
2021/10/17 13:07:30;;;;;;;6.47;4.18;;;;;;;14.17;66.63;101918.16;10582757;28;20047;-61
2021/10/17 13:12:41;;;;;;;10.05;3.95;;;;;;;14.33;68.31;101912.03;10580773;28;20044;-61
2021/10/17 13:17:49;;;;;;;6.88;4.00;;;;;;;14.20;67.69;101909.22;10581192;28;20141;-61
2021/10/17 13:22:53;;;;;;;6.18;3.60;;;;;;;13.84;63.33;101905.88;10580106;28;20074;-61
2021/10/17 13:27:57;;;;;;;8.13;4.53;;;;;;;13.87;65.08;101892.53;10564407;28;20074;-61
2021/10/17 13:33:00;;;;;;;7.72;4.40;;;;;;;13.87;61.83;101897.81;10581687;28;20052;-61
2021/10/17 13:38:05;;;;;;;11.75;5.18;;;;;;;13.93;64.22;101902.72;10563428;28;20509;-61
2021/10/17 13:43:08;;;;;;;9.13;4.47;;;;;;;13.92;67.06;101901.03;10581880;28;20051;-61
2021/10/17 13:48:10;;;;;;;11.68;4.38;;;;;;;13.94;68.63;101900.97;10581450;28;20608;-61
2021/10/17 13:53:13;;;;;;;6.03;3.30;;;;;;;13.87;69.73;101902.19;10581261;28;20050;-61
2021/10/17 13:58:15;;;;;;;13.93;5.43;;;;;;;13.85;66.60;101909.34;10581331;28;20062;-61
2021/10/17 14:03:18;;;;;;;10.88;4.90;;;;;;;13.53;73.78;101918.03;10582025;28;20052;-62
2021/10/17 14:08:20;;;;;;;12.70;4.82;;;;;;;13.43;76.29;101921.19;10571584;28;20047;-62
2021/10/17 14:13:23;;;;;;;7.97;4.80;;;;;;;13.29;73.89;101921.88;10589499;28;20047;-61
2021/10/17 14:18:26;;;;;;;10.48;4.50;;;;;;;13.07;77.51;101919.47;10589386;28;20048;-61
2021/10/17 14:23:28;;;;;;;20.17;5.40;;;;;;;13.09;75.59;101925.50;10589030;28;20047;-61
2021/10/17 14:28:30;;;;;;;13.02;5.50;;;;;;;13.05;77.27;101929.22;10588868;28;20050;-61
2021/10/17 14:33:33;;;;;;;10.68;4.40;;;;;;;12.86;79.65;101924.00;10588680;28;20054;-61
2021/10/17 14:38:35;;;;;;;6.45;4.75;;;;;;;12.89;81.45;101926.50;10588302;28;20063;-61
2021/10/17 14:43:38;;;;;;;9.63;4.55;;;;;;;12.89;82.40;101927.31;10588250;28;20551;-61
2021/10/17 14:48:40;;;;;;;9.45;4.97;;;;;;;12.87;85.23;101933.59;10588163;28;20043;-61
2021/10/17 14:53:43;;;;;;;9.45;4.45;;;;;;;12.89;84.17;101926.50;10587814;28;20123;-61
2021/10/17 14:58:45;;;;;;;12.88;5.43;;;;;;;12.75;85.02;101925.38;10587642;28;20050;-61
2021/10/17 15:03:48;;;;;;;8.50;4.63;;;;;;;12.78;85.83;101934.91;10587651;28;20062;-61
2021/10/17 15:08:50;;;;;;;7.93;4.60;;;;;;;12.78;83.60;101935.75;10587153;28;20043;-61
2021/10/17 15:13:52;;;;;;;9.57;4.75;;;;;;;12.66;85.60;101930.22;10587018;28;20040;-61
2021/10/17 15:18:55;;;;;;;7.68;3.65;;;;;;;12.68;86.49;101937.13;10586754;28;20043;-61
2021/10/17 15:24:00;;;;;;;8.88;3.97;;;;;;;12.50;90.40;101943.25;10569099;28;20058;-61
2021/10/17 15:29:02;;;;;;;7.93;3.97;;;;;;;12.27;93.49;101938.16;10587386;28;20052;-61
2021/10/17 15:34:06;;;;;;;9.52;4.40;;;;;;;12.12;91.39;101943.25;10585863;28;20055;-61
2021/10/17 15:39:08;;;;;;;6.57;4.28;;;;;;;12.08;93.11;101937.28;10586016;28;20051;-61
2021/10/17 15:44:16;;;;;;;11.45;4.00;;;;;;;12.08;92.86;101935.50;10585806;28;20056;-61
2021/10/17 15:49:18;;;;;;;8.02;5.13;;;;;;;11.85;93.08;101933.03;10586384;28;20127;-61
2021/10/17 15:54:22;;;;;;;10.10;5.07;;;;;;;11.76;93.97;101928.22;10585184;28;20483;-61
2021/10/17 15:59:25;;;;;;;7.30;4.28;;;;;;;11.75;93.92;101935.25;10585166;28;20050;-61
2021/10/17 16:04:27;;;;;;;7.40;3.90;;;;;;;11.71;94.81;101938.91;10584823;28;20490;-61
2021/10/17 16:09:30;;;;;;;5.60;4.00;;;;;;;11.62;96.48;101955.91;10584406;28;20510;-61
2021/10/17 16:14:32;;;;;;;13.40;4.80;;;;;;;11.44;98.60;101954.91;10584411;28;20495;-61
2021/10/17 16:19:35;;;;;;;7.40;4.57;;;;;;;11.28;98.61;101948.59;10583993;28;20419;-61
2021/10/17 16:24:37;;;;;;;11.35;5.40;;;;;;;11.37;98.02;101961.34;10584058;28;20398;-61
2021/10/17 16:29:43;;;;;;;8.23;5.32;;;;;;;11.23;97.78;101975.03;10583253;28;20128;-61
2021/10/17 16:34:47;;;;;;;12.90;5.55;;;;;;;11.30;100.00;101971.22;10583273;28;20055;-61
2021/10/17 16:39:54;;;;;;;9.10;5.15;;;;;;;11.12;99.14;101969.38;10583765;28;20122;-61
2021/10/17 16:44:56;;;;;;;10.57;5.07;;;;;;;10.95;100.00;101976.16;10565445;28;20054;-61
2021/10/17 16:49:58;;;;;;;8.80;5.15;;;;;;;10.88;100.00;101989.56;10565265;28;20046;-61
2021/10/17 16:55:01;;;;;;;9.20;6.68;;;;;;;10.87;100.00;101980.84;10583067;28;20055;-61
2021/10/17 17:00:04;;;;;;;10.30;5.93;;;;;;;10.72;100.00;101981.44;10582665;28;20047;-61
2021/10/17 17:05:07;;;;;;;8.57;5.10;;;;;;;10.81;100.00;101978.47;10582953;28;20058;-61
2021/10/17 17:10:09;;;;;;;6.40;5.28;;;;;;;10.68;100.00;101978.09;10582532;28;20057;-61
2021/10/17 17:15:12;;;;;;;16.25;6.20;;;;;;;10.69;100.00;101985.06;10582267;28;20046;-61
2021/10/17 17:20:15;;;;;;;12.68;7.28;;;;;;;10.58;100.00;101995.94;10563921;28;20050;-61
2021/10/17 17:25:19;;;;;;;11.48;6.53;;;;;;;10.58;100.00;101990.69;10581827;28;20059;-61
2021/10/17 17:30:22;;;;;;;13.02;7.78;;;;;;;10.37;100.00;101995.00;10581839;28;20044;-61
2021/10/17 17:35:25;;;;;;;9.65;5.90;;;;;;;10.30;100.00;101995.22;10581341;28;20524;-61
2021/10/17 17:40:27;;;;;;;13.25;6.10;;;;;;;10.40;100.00;102004.47;10592241;28;20044;-61
2021/10/17 17:45:30;;;;;;;11.23;6.30;;;;;;;10.38;100.00;102008.94;10595958;28;20405;-61
2021/10/17 17:50:33;;;;;;;11.55;6.20;;;;;;;10.40;100.00;102010.56;10595441;28;20144;-60
2021/10/17 17:55:35;;;;;;;15.50;8.27;;;;;;;10.31;100.00;102021.34;10577546;28;20371;-61
2021/10/17 18:00:38;;;;;;;11.57;6.95;;;;;;;10.45;100.00;102020.88;10595982;28;20423;-61
2021/10/17 18:05:40;;;;;;;12.50;7.10;;;;;;;10.36;100.00;102029.06;10595425;28;20043;-61
2021/10/17 18:10:43;;;;;;;10.90;7.30;;;;;;;10.22;100.00;102026.91;10595189;28;20475;-60
2021/10/17 18:15:45;;;;;;;12.25;7.15;;;;;;;10.18;100.00;102026.16;10594854;28;20418;-61
2021/10/17 18:20:47;;;;;;;19.15;10.82;;;;;;;10.00;100.00;102017.25;10595175;28;20039;-61
2021/10/17 18:25:50;;;;;;;17.63;11.93;;;;;;;10.36;100.00;102010.75;10595197;28;20057;-61
2021/10/17 18:30:56;;;;;;;12.82;8.82;;;;;;;10.20;100.00;102013.03;10594910;28;20048;-61
2021/10/17 18:35:58;;;;;;;16.50;8.18;;;;;;;10.12;100.00;102004.59;10594668;28;20056;-61
2021/10/17 18:41:01;;;;;;;12.30;9.07;;;;;;;10.13;100.00;102008.94;10576313;28;20050;-61
2021/10/17 18:46:05;;;;;;;12.27;7.57;;;;;;;9.98;100.00;102011.19;10595568;28;20047;-61
2021/10/17 18:51:08;;;;;;;17.50;8.93;;;;;;;9.92;100.00;102010.53;10571764;28;20043;-60
2021/10/17 18:56:22;;;;;;;11.95;8.50;;;;;;;10.12;100.00;102015.06;10588080;28;20043;-61
2021/10/17 19:01:24;;;;;;;11.70;7.45;;;;;;;10.16;100.00;102030.63;10569588;28;20040;-61
2021/10/17 19:06:28;;;;;;;11.85;6.85;;;;;;;10.34;100.00;102030.88;10587571;28;20068;-61
2021/10/17 19:11:30;;;;;;;15.85;7.10;;;;;;;10.08;100.00;102024.78;10587619;28;20044;-61
2021/10/17 19:16:32;;;;;;;17.88;7.93;;;;;;;10.00;100.00;102034.69;10587222;28;20044;-60
2021/10/17 19:21:35;;;;;;;15.63;8.02;;;;;;;10.00;100.00;102027.72;10586880;28;20102;-61
2021/10/17 19:26:38;;;;;;;14.57;7.43;;;;;;;9.95;100.00;102033.97;10586837;28;20044;-61
2021/10/17 19:31:40;;;;;;;14.02;8.23;;;;;;;9.94;100.00;102027.91;10586057;28;20044;-61
2021/10/17 19:36:43;;;;;;;13.45;8.23;;;;;;;9.89;100.00;102019.38;10586205;28;20096;-61
2021/10/17 19:41:45;;;;;;;33.88;19.58;;;;;;;9.91;100.00;102021.94;10585881;28;20044;-61
2021/10/17 19:46:47;;;;;;;17.25;11.55;;;;;;;10.05;100.00;102022.28;10585987;28;20088;-61
2021/10/17 19:51:50;;;;;;;19.75;9.25;;;;;;;9.78;100.00;102019.72;10585512;28;20051;-60
2021/10/17 19:56:52;;;;;;;13.15;7.70;;;;;;;9.84;100.00;102029.13;10585752;28;20047;-60
2021/10/17 20:01:54;;;;;;;13.98;8.65;;;;;;;9.71;100.00;102025.25;10583928;28;20054;-61
2021/10/17 20:06:57;;;;;;;13.30;8.00;;;;;;;9.82;100.00;102046.66;10585080;28;20044;-60
2021/10/17 20:11:59;;;;;;;21.88;8.48;;;;;;;10.04;100.00;102046.75;10584564;28;20065;-61
2021/10/17 20:17:05;;;;;;;16.50;6.90;;;;;;;10.02;100.00;102046.81;10584385;28;20047;-61
2021/10/17 20:22:07;;;;;;;13.50;8.38;;;;;;;9.89;100.00;102050.75;10566341;28;20050;-61
2021/10/17 20:27:10;;;;;;;17.98;6.95;;;;;;;9.69;100.00;102061.06;10584193;28;20404;-61
2021/10/17 20:32:13;;;;;;;11.55;7.55;;;;;;;9.79;100.00;102058.06;10583634;28;20426;-61
2021/10/17 20:37:22;;;;;;;15.57;6.93;;;;;;;9.91;100.00;102058.56;10583587;28;20510;-60
2021/10/17 20:42:24;;;;;;;12.77;7.15;;;;;;;9.73;100.00;102060.88;10583277;28;20429;-61
2021/10/17 20:47:27;;;;;;;11.82;7.30;;;;;;;9.71;100.00;102059.22;10583341;28;20399;-61
2021/10/17 20:52:29;;;;;;;11.68;7.60;;;;;;;9.81;100.00;102063.25;10582748;28;20047;-61
2021/10/17 20:57:32;;;;;;;12.38;6.85;;;;;;;9.52;100.00;102064.22;10582799;28;20075;-61
2021/10/17 21:02:34;;;;;;;10.32;7.00;;;;;;;9.62;100.00;102071.69;10582127;28;20052;-61
2021/10/17 21:07:37;;;;;;;11.27;7.63;;;;;;;9.58;100.00;102069.22;10582411;28;20548;-60
2021/10/17 21:12:43;;;;;;;10.80;6.95;;;;;;;9.46;100.00;102060.91;10581741;28;20047;-61
2021/10/17 21:17:45;;;;;;;13.50;7.72;;;;;;;9.35;100.00;102056.94;10582130;28;20411;-61
2021/10/17 21:22:48;;;;;;;15.32;8.98;;;;;;;9.41;100.00;102064.56;10581811;28;20398;-61
2021/10/17 21:27:52;;;;;;;12.50;8.52;;;;;;;9.43;100.00;102073.19;10563632;28;20054;-60
2021/10/17 21:32:55;;;;;;;11.25;8.05;;;;;;;9.38;100.00;102080.34;10581707;28;20078;-61
2021/10/17 21:37:57;;;;;;;18.08;9.68;;;;;;;9.16;100.00;102088.84;10581684;28;20394;-61
2021/10/17 21:42:59;;;;;;;16.88;10.43;;;;;;;9.23;100.00;102079.94;10581414;28;20051;-61
2021/10/17 21:48:02;;;;;;;17.48;9.88;;;;;;;9.03;100.00;102083.16;10581488;28;20055;-60
2021/10/17 21:53:04;;;;;;;25.80;11.30;;;;;;;8.92;100.00;102093.91;10581239;28;20056;-61
2021/10/17 21:58:08;;;;;;;17.30;10.93;;;;;;;8.72;100.00;102089.31;10581355;28;20052;-60
2021/10/17 22:03:13;;;;;;;13.85;11.15;;;;;;;8.81;100.00;102096.00;10580753;28;20069;-61
2021/10/17 22:08:15;;;;;;;15.50;10.95;;;;;;;8.51;100.00;102089.91;10581153;28;20059;-60
2021/10/17 22:13:17;;;;;;;22.80;11.27;;;;;;;8.64;100.00;102100.84;10580772;28;20051;-61
2021/10/17 22:18:21;;;;;;;19.65;10.93;;;;;;;8.64;100.00;102108.66;10563014;28;20051;-61
2021/10/17 22:23:23;;;;;;;16.83;12.23;;;;;;;8.51;100.00;102119.47;10580958;28;20050;-60
2021/10/17 22:28:25;;;;;;;19.40;11.75;;;;;;;8.66;100.00;102110.34;10588092;28;20051;-60
2021/10/17 22:33:28;;;;;;;19.27;11.32;;;;;;;8.63;100.00;102112.19;10588241;28;20450;-61
2021/10/17 22:38:30;;;;;;;16.60;11.35;;;;;;;8.58;100.00;102106.25;10587801;28;20495;-60
2021/10/17 22:43:33;;;;;;;18.42;12.18;;;;;;;8.45;100.00;102113.56;10588244;28;20056;-60
2021/10/17 22:48:35;;;;;;;22.23;12.90;;;;;;;8.43;100.00;102108.38;10569899;28;20051;-60
2021/10/17 22:53:37;;;;;;;17.75;11.77;;;;;;;8.57;100.00;102112.38;10587795;28;20058;-60
2021/10/17 22:58:40;;;;;;;17.73;12.65;;;;;;;8.69;100.00;102101.56;10587941;28;20051;-60